sensor_id;sensor_type;location;lat;lon;timestamp;temperature;humidity
19665;DHT22;9980;51.020;7.772;2024-01-27T00:02:08;7.10;99.90
19665;DHT22;9980;51.020;7.772;2024-01-27T00:04:38;7.10;99.90
19665;DHT22;9980;51.020;7.772;2024-01-27T00:07:05;7.10;99.90
19665;DHT22;9980;51.020;7.772;2024-01-27T00:09:32;7.10;99.90
19665;DHT22;9980;51.020;7.772;2024-01-27T00:11:59;7.00;99.90
19665;DHT22;9980;51.020;7.772;2024-01-27T00:14:27;7.00;99.90
19665;DHT22;9980;51.020;7.772;2024-01-27T00:16:54;7.00;99.90
19665;DHT22;9980;51.020;7.772;2024-01-27T00:19:21;7.00;99.90
19665;DHT22;9980;51.020;7.772;2024-01-27T00:21:48;7.00;99.90
19665;DHT22;9980;51.020;7.772;2024-01-27T00:24:15;7.00;99.90
19665;DHT22;9980;51.020;7.772;2024-01-27T00:26:43;6.90;99.90
19665;DHT22;9980;51.020;7.772;2024-01-27T00:29:11;6.90;99.90
19665;DHT22;9980;51.020;7.772;2024-01-27T00:31:38;6.80;99.90
19665;DHT22;9980;51.020;7.772;2024-01-27T00:34:04;6.90;99.90
19665;DHT22;9980;51.020;7.772;2024-01-27T00:36:32;6.80;99.90
19665;DHT22;9980;51.020;7.772;2024-01-27T00:38:59;6.80;99.90
19665;DHT22;9980;51.020;7.772;2024-01-27T00:41:26;6.80;99.90
19665;DHT22;9980;51.020;7.772;2024-01-27T00:43:53;6.80;99.90
19665;DHT22;9980;51.020;7.772;2024-01-27T00:46:20;6.80;99.90
19665;DHT22;9980;51.020;7.772;2024-01-27T00:48:47;6.80;99.90
19665;DHT22;9980;51.020;7.772;2024-01-27T00:51:14;6.80;99.90
19665;DHT22;9980;51.020;7.772;2024-01-27T00:53:41;6.80;99.90
19665;DHT22;9980;51.020;7.772;2024-01-27T00:56:08;6.80;99.90
19665;DHT22;9980;51.020;7.772;2024-01-27T00:58:35;6.70;99.90
19665;DHT22;9980;51.020;7.772;2024-01-27T01:01:03;6.80;99.90
19665;DHT22;9980;51.020;7.772;2024-01-27T01:03:30;6.70;99.90
19665;DHT22;9980;51.020;7.772;2024-01-27T01:05:57;6.70;99.90
19665;DHT22;9980;51.020;7.772;2024-01-27T01:08:24;6.70;99.90
19665;DHT22;9980;51.020;7.772;2024-01-27T01:10:51;6.70;99.90
19665;DHT22;9980;51.020;7.772;2024-01-27T01:13:18;6.70;99.90
19665;DHT22;9980;51.020;7.772;2024-01-27T01:15:44;6.70;99.90
19665;DHT22;9980;51.020;7.772;2024-01-27T01:18:11;6.70;99.90
19665;DHT22;9980;51.020;7.772;2024-01-27T01:20:38;6.60;99.90
19665;DHT22;9980;51.020;7.772;2024-01-27T01:23:05;6.60;99.90
19665;DHT22;9980;51.020;7.772;2024-01-27T01:25:32;6.50;99.90
19665;DHT22;9980;51.020;7.772;2024-01-27T01:27:59;6.60;99.90
19665;DHT22;9980;51.020;7.772;2024-01-27T01:30:27;6.50;99.90
19665;DHT22;9980;51.020;7.772;2024-01-27T01:32:54;6.50;99.90
19665;DHT22;9980;51.020;7.772;2024-01-27T01:35:21;6.50;99.90
19665;DHT22;9980;51.020;7.772;2024-01-27T01:37:48;6.40;99.90
19665;DHT22;9980;51.020;7.772;2024-01-27T01:40:15;6.40;99.90
19665;DHT22;9980;51.020;7.772;2024-01-27T01:42:42;6.40;99.90
19665;DHT22;9980;51.020;7.772;2024-01-27T01:45:11;6.30;99.90
19665;DHT22;9980;51.020;7.772;2024-01-27T01:47:39;6.20;99.90
19665;DHT22;9980;51.020;7.772;2024-01-27T01:50:08;6.20;99.90
19665;DHT22;9980;51.020;7.772;2024-01-27T01:52:36;6.20;99.90
19665;DHT22;9980;51.020;7.772;2024-01-27T01:55:05;6.20;99.90
19665;DHT22;9980;51.020;7.772;2024-01-27T01:57:33;6.10;99.90
19665;DHT22;9980;51.020;7.772;2024-01-27T02:00:00;6.10;99.90
19665;DHT22;9980;51.020;7.772;2024-01-27T02:02:37;6.10;99.90
19665;DHT22;9980;51.020;7.772;2024-01-27T02:05:04;6.00;99.90
19665;DHT22;9980;51.020;7.772;2024-01-27T02:07:31;6.00;99.90
19665;DHT22;9980;51.020;7.772;2024-01-27T02:09:58;6.00;99.90
19665;DHT22;9980;51.020;7.772;2024-01-27T02:12:25;5.90;99.90
19665;DHT22;9980;51.020;7.772;2024-01-27T02:14:52;5.90;99.90
19665;DHT22;9980;51.020;7.772;2024-01-27T02:17:19;5.90;99.90
19665;DHT22;9980;51.020;7.772;2024-01-27T02:19:46;5.80;99.90
19665;DHT22;9980;51.020;7.772;2024-01-27T02:22:14;5.80;99.90
19665;DHT22;9980;51.020;7.772;2024-01-27T02:24:40;5.80;99.90
19665;DHT22;9980;51.020;7.772;2024-01-27T02:27:07;5.70;99.90
19665;DHT22;9980;51.020;7.772;2024-01-27T02:29:34;5.70;99.90
19665;DHT22;9980;51.020;7.772;2024-01-27T02:32:01;5.70;99.90
19665;DHT22;9980;51.020;7.772;2024-01-27T02:34:28;5.60;99.90
19665;DHT22;9980;51.020;7.772;2024-01-27T02:36:55;5.60;99.90
19665;DHT22;9980;51.020;7.772;2024-01-27T02:39:22;5.60;99.90
19665;DHT22;9980;51.020;7.772;2024-01-27T02:41:49;5.50;99.90
19665;DHT22;9980;51.020;7.772;2024-01-27T02:44:16;5.50;99.90
19665;DHT22;9980;51.020;7.772;2024-01-27T02:46:43;5.50;99.90
19665;DHT22;9980;51.020;7.772;2024-01-27T02:49:10;5.40;99.90
19665;DHT22;9980;51.020;7.772;2024-01-27T02:51:38;5.40;99.90
19665;DHT22;9980;51.020;7.772;2024-01-27T02:54:05;5.30;99.90
19665;DHT22;9980;51.020;7.772;2024-01-27T02:56:31;5.30;99.90
19665;DHT22;9980;51.020;7.772;2024-01-27T02:58:58;5.20;99.90
19665;DHT22;9980;51.020;7.772;2024-01-27T03:01:25;5.20;99.90
19665;DHT22;9980;51.020;7.772;2024-01-27T03:03:52;5.20;99.90
19665;DHT22;9980;51.020;7.772;2024-01-27T03:06:19;5.10;99.90
19665;DHT22;9980;51.020;7.772;2024-01-27T03:08:46;5.10;99.90
19665;DHT22;9980;51.020;7.772;2024-01-27T03:11:13;5.00;99.90
19665;DHT22;9980;51.020;7.772;2024-01-27T03:13:40;5.00;99.90
19665;DHT22;9980;51.020;7.772;2024-01-27T03:16:11;5.00;99.90
19665;DHT22;9980;51.020;7.772;2024-01-27T03:18:38;5.00;99.90
19665;DHT22;9980;51.020;7.772;2024-01-27T03:21:08;4.90;99.90
19665;DHT22;9980;51.020;7.772;2024-01-27T03:23:35;4.90;99.90
19665;DHT22;9980;51.020;7.772;2024-01-27T03:26:03;4.90;99.90
19665;DHT22;9980;51.020;7.772;2024-01-27T03:28:30;4.80;99.90
19665;DHT22;9980;51.020;7.772;2024-01-27T03:30:57;4.70;99.90
19665;DHT22;9980;51.020;7.772;2024-01-27T03:33:26;4.70;99.90
19665;DHT22;9980;51.020;7.772;2024-01-27T03:35:56;4.70;99.90
19665;DHT22;9980;51.020;7.772;2024-01-27T03:38:23;4.70;99.90
19665;DHT22;9980;51.020;7.772;2024-01-27T03:40:50;4.60;99.90
19665;DHT22;9980;51.020;7.772;2024-01-27T03:43:17;4.60;99.90
19665;DHT22;9980;51.020;7.772;2024-01-27T03:45:44;4.60;99.90
19665;DHT22;9980;51.020;7.772;2024-01-27T03:48:11;4.50;99.90
19665;DHT22;9980;51.020;7.772;2024-01-27T03:50:39;4.50;99.90
19665;DHT22;9980;51.020;7.772;2024-01-27T03:53:05;4.50;99.90
19665;DHT22;9980;51.020;7.772;2024-01-27T03:55:33;4.50;99.90
19665;DHT22;9980;51.020;7.772;2024-01-27T03:58:00;4.40;99.90
19665;DHT22;9980;51.020;7.772;2024-01-27T04:00:28;4.40;99.90
19665;DHT22;9980;51.020;7.772;2024-01-27T04:02:59;4.30;99.90
19665;DHT22;9980;51.020;7.772;2024-01-27T04:05:28;4.30;99.90
19665;DHT22;9980;51.020;7.772;2024-01-27T04:07:56;4.30;99.90
19665;DHT22;9980;51.020;7.772;2024-01-27T04:10:23;4.30;99.90
19665;DHT22;9980;51.020;7.772;2024-01-27T04:12:50;4.20;99.90
19665;DHT22;9980;51.020;7.772;2024-01-27T04:15:17;4.20;99.90
19665;DHT22;9980;51.020;7.772;2024-01-27T04:17:44;4.20;99.90
19665;DHT22;9980;51.020;7.772;2024-01-27T04:20:11;4.20;99.90
19665;DHT22;9980;51.020;7.772;2024-01-27T04:22:38;4.20;99.90
19665;DHT22;9980;51.020;7.772;2024-01-27T04:25:06;4.10;99.90
19665;DHT22;9980;51.020;7.772;2024-01-27T04:27:37;4.10;99.90
19665;DHT22;9980;51.020;7.772;2024-01-27T04:30:06;4.00;99.90
19665;DHT22;9980;51.020;7.772;2024-01-27T04:32:35;4.00;99.90
19665;DHT22;9980;51.020;7.772;2024-01-27T04:35:02;4.00;99.90
19665;DHT22;9980;51.020;7.772;2024-01-27T04:37:29;4.00;99.90
19665;DHT22;9980;51.020;7.772;2024-01-27T04:39:56;4.00;99.90
19665;DHT22;9980;51.020;7.772;2024-01-27T04:42:23;3.90;99.90
19665;DHT22;9980;51.020;7.772;2024-01-27T04:44:50;3.90;99.90
19665;DHT22;9980;51.020;7.772;2024-01-27T04:47:17;3.90;99.90
19665;DHT22;9980;51.020;7.772;2024-01-27T04:49:45;3.90;99.90
19665;DHT22;9980;51.020;7.772;2024-01-27T04:52:12;3.90;99.90
19665;DHT22;9980;51.020;7.772;2024-01-27T04:54:38;3.80;99.90
19665;DHT22;9980;51.020;7.772;2024-01-27T04:57:09;3.80;99.90
19665;DHT22;9980;51.020;7.772;2024-01-27T04:59:36;3.80;99.90
19665;DHT22;9980;51.020;7.772;2024-01-27T05:02:03;3.70;99.90
19665;DHT22;9980;51.020;7.772;2024-01-27T05:04:30;3.80;99.90
19665;DHT22;9980;51.020;7.772;2024-01-27T05:06:57;3.70;99.90
19665;DHT22;9980;51.020;7.772;2024-01-27T05:09:24;3.70;99.90
19665;DHT22;9980;51.020;7.772;2024-01-27T05:11:52;3.70;99.90
19665;DHT22;9980;51.020;7.772;2024-01-27T05:14:20;3.70;99.90
19665;DHT22;9980;51.020;7.772;2024-01-27T05:16:46;3.60;99.90
19665;DHT22;9980;51.020;7.772;2024-01-27T05:19:13;3.60;99.90
19665;DHT22;9980;51.020;7.772;2024-01-27T05:21:42;3.60;99.90
19665;DHT22;9980;51.020;7.772;2024-01-27T05:24:08;3.60;99.90
19665;DHT22;9980;51.020;7.772;2024-01-27T05:26:36;3.60;99.90
19665;DHT22;9980;51.020;7.772;2024-01-27T05:29:03;3.50;99.90
19665;DHT22;9980;51.020;7.772;2024-01-27T05:31:30;3.50;99.90
19665;DHT22;9980;51.020;7.772;2024-01-27T05:33:56;3.50;99.90
19665;DHT22;9980;51.020;7.772;2024-01-27T05:36:24;3.50;99.90
19665;DHT22;9980;51.020;7.772;2024-01-27T05:38:50;3.50;99.90
19665;DHT22;9980;51.020;7.772;2024-01-27T05:41:17;3.40;99.90
19665;DHT22;9980;51.020;7.772;2024-01-27T05:43:44;3.40;99.90
19665;DHT22;9980;51.020;7.772;2024-01-27T05:46:11;3.40;99.90
19665;DHT22;9980;51.020;7.772;2024-01-27T05:48:38;3.40;99.90
19665;DHT22;9980;51.020;7.772;2024-01-27T05:51:05;3.30;99.90
19665;DHT22;9980;51.020;7.772;2024-01-27T05:53:35;3.30;99.90
19665;DHT22;9980;51.020;7.772;2024-01-27T05:56:02;3.30;99.90
19665;DHT22;9980;51.020;7.772;2024-01-27T05:58:29;3.20;99.90
19665;DHT22;9980;51.020;7.772;2024-01-27T06:00:56;3.30;99.90
19665;DHT22;9980;51.020;7.772;2024-01-27T06:03:23;3.20;99.90
19665;DHT22;9980;51.020;7.772;2024-01-27T06:05:50;3.20;99.90
19665;DHT22;9980;51.020;7.772;2024-01-27T06:08:17;3.20;99.90
19665;DHT22;9980;51.020;7.772;2024-01-27T06:10:47;3.20;99.90
19665;DHT22;9980;51.020;7.772;2024-01-27T06:13:14;3.20;99.90
19665;DHT22;9980;51.020;7.772;2024-01-27T06:15:41;3.10;99.90
19665;DHT22;9980;51.020;7.772;2024-01-27T06:18:08;3.10;99.90
19665;DHT22;9980;51.020;7.772;2024-01-27T06:20:35;3.10;99.90
19665;DHT22;9980;51.020;7.772;2024-01-27T06:23:02;3.10;99.90
19665;DHT22;9980;51.020;7.772;2024-01-27T06:25:29;3.00;99.90
19665;DHT22;9980;51.020;7.772;2024-01-27T06:27:55;3.00;99.90
19665;DHT22;9980;51.020;7.772;2024-01-27T06:30:22;3.00;99.90
19665;DHT22;9980;51.020;7.772;2024-01-27T06:32:50;3.00;99.90
19665;DHT22;9980;51.020;7.772;2024-01-27T06:35:17;2.90;99.90
19665;DHT22;9980;51.020;7.772;2024-01-27T06:37:44;2.90;99.90
19665;DHT22;9980;51.020;7.772;2024-01-27T06:40:11;2.90;99.90
19665;DHT22;9980;51.020;7.772;2024-01-27T06:42:39;2.90;99.90
19665;DHT22;9980;51.020;7.772;2024-01-27T06:45:06;2.80;99.90
19665;DHT22;9980;51.020;7.772;2024-01-27T06:47:33;2.80;99.90
19665;DHT22;9980;51.020;7.772;2024-01-27T06:50:00;2.80;99.90
19665;DHT22;9980;51.020;7.772;2024-01-27T06:52:27;2.80;99.90
19665;DHT22;9980;51.020;7.772;2024-01-27T06:54:54;2.70;99.90
19665;DHT22;9980;51.020;7.772;2024-01-27T06:57:22;2.70;99.90
19665;DHT22;9980;51.020;7.772;2024-01-27T06:59:51;2.70;99.90
19665;DHT22;9980;51.020;7.772;2024-01-27T07:02:26;2.70;99.90
19665;DHT22;9980;51.020;7.772;2024-01-27T07:04:53;2.60;99.90
19665;DHT22;9980;51.020;7.772;2024-01-27T07:07:26;2.60;99.90
19665;DHT22;9980;51.020;7.772;2024-01-27T07:09:57;2.60;99.90
19665;DHT22;9980;51.020;7.772;2024-01-27T07:12:25;2.60;99.90
19665;DHT22;9980;51.020;7.772;2024-01-27T07:14:52;2.60;99.90
19665;DHT22;9980;51.020;7.772;2024-01-27T07:17:23;2.60;99.90
19665;DHT22;9980;51.020;7.772;2024-01-27T07:19:50;2.50;99.90
19665;DHT22;9980;51.020;7.772;2024-01-27T07:22:17;2.50;99.90
19665;DHT22;9980;51.020;7.772;2024-01-27T07:24:44;2.50;99.90
19665;DHT22;9980;51.020;7.772;2024-01-27T07:27:14;2.50;99.90
19665;DHT22;9980;51.020;7.772;2024-01-27T07:29:41;2.50;99.90
19665;DHT22;9980;51.020;7.772;2024-01-27T07:32:08;2.50;99.90
19665;DHT22;9980;51.020;7.772;2024-01-27T07:34:43;2.40;99.90
19665;DHT22;9980;51.020;7.772;2024-01-27T07:37:10;2.40;99.90
19665;DHT22;9980;51.020;7.772;2024-01-27T07:39:37;2.40;99.90
19665;DHT22;9980;51.020;7.772;2024-01-27T07:42:05;2.40;99.90
19665;DHT22;9980;51.020;7.772;2024-01-27T07:44:32;2.40;99.90
19665;DHT22;9980;51.020;7.772;2024-01-27T07:46:59;2.40;99.90
19665;DHT22;9980;51.020;7.772;2024-01-27T07:49:26;2.30;99.90
19665;DHT22;9980;51.020;7.772;2024-01-27T07:51:53;2.30;99.90
19665;DHT22;9980;51.020;7.772;2024-01-27T07:54:20;2.30;99.90
19665;DHT22;9980;51.020;7.772;2024-01-27T07:56:47;2.30;99.90
19665;DHT22;9980;51.020;7.772;2024-01-27T07:59:14;2.30;99.90
19665;DHT22;9980;51.020;7.772;2024-01-27T08:01:41;2.30;99.90
19665;DHT22;9980;51.020;7.772;2024-01-27T08:04:08;2.30;99.90
19665;DHT22;9980;51.020;7.772;2024-01-27T08:06:47;2.30;99.90
19665;DHT22;9980;51.020;7.772;2024-01-27T08:09:15;2.30;99.90
19665;DHT22;9980;51.020;7.772;2024-01-27T08:11:43;2.30;99.90
19665;DHT22;9980;51.020;7.772;2024-01-27T08:14:10;2.30;99.90
19665;DHT22;9980;51.020;7.772;2024-01-27T08:16:37;2.30;99.90
19665;DHT22;9980;51.020;7.772;2024-01-27T08:19:04;2.30;99.90
19665;DHT22;9980;51.020;7.772;2024-01-27T08:21:32;2.30;99.90
19665;DHT22;9980;51.020;7.772;2024-01-27T08:23:59;2.30;99.90
19665;DHT22;9980;51.020;7.772;2024-01-27T08:26:26;2.30;99.90
19665;DHT22;9980;51.020;7.772;2024-01-27T08:28:53;2.30;99.90
19665;DHT22;9980;51.020;7.772;2024-01-27T08:31:22;2.30;99.90
19665;DHT22;9980;51.020;7.772;2024-01-27T08:33:49;2.30;99.90
19665;DHT22;9980;51.020;7.772;2024-01-27T08:36:17;2.30;99.90
19665;DHT22;9980;51.020;7.772;2024-01-27T08:38:44;2.30;99.90
19665;DHT22;9980;51.020;7.772;2024-01-27T08:41:12;2.30;99.90
19665;DHT22;9980;51.020;7.772;2024-01-27T08:43:39;2.40;99.90
19665;DHT22;9980;51.020;7.772;2024-01-27T08:46:06;2.40;99.90
19665;DHT22;9980;51.020;7.772;2024-01-27T08:48:38;2.40;99.90
19665;DHT22;9980;51.020;7.772;2024-01-27T08:51:07;2.50;99.90
19665;DHT22;9980;51.020;7.772;2024-01-27T08:53:35;2.50;99.90
19665;DHT22;9980;51.020;7.772;2024-01-27T08:56:02;2.50;99.90
19665;DHT22;9980;51.020;7.772;2024-01-27T08:58:29;2.50;99.90
19665;DHT22;9980;51.020;7.772;2024-01-27T09:00:56;2.60;99.90
19665;DHT22;9980;51.020;7.772;2024-01-27T09:03:23;2.60;99.90
19665;DHT22;9980;51.020;7.772;2024-01-27T09:05:50;2.70;99.90
19665;DHT22;9980;51.020;7.772;2024-01-27T09:08:17;2.70;99.90
19665;DHT22;9980;51.020;7.772;2024-01-27T09:10:44;2.80;99.90
19665;DHT22;9980;51.020;7.772;2024-01-27T09:13:11;2.80;99.90
19665;DHT22;9980;51.020;7.772;2024-01-27T09:15:38;2.90;99.90
19665;DHT22;9980;51.020;7.772;2024-01-27T09:18:05;3.00;99.90
19665;DHT22;9980;51.020;7.772;2024-01-27T09:20:32;3.00;99.90
19665;DHT22;9980;51.020;7.772;2024-01-27T09:22:59;3.10;99.90
19665;DHT22;9980;51.020;7.772;2024-01-27T09:25:26;3.20;99.90
19665;DHT22;9980;51.020;7.772;2024-01-27T09:27:56;3.20;99.90
19665;DHT22;9980;51.020;7.772;2024-01-27T09:30:27;3.30;99.90
19665;DHT22;9980;51.020;7.772;2024-01-27T09:32:57;3.40;99.90
19665;DHT22;9980;51.020;7.772;2024-01-27T09:35:24;3.40;99.90
19665;DHT22;9980;51.020;7.772;2024-01-27T09:37:51;3.50;99.90
19665;DHT22;9980;51.020;7.772;2024-01-27T09:40:18;3.60;99.90
19665;DHT22;9980;51.020;7.772;2024-01-27T09:42:51;3.60;99.90
19665;DHT22;9980;51.020;7.772;2024-01-27T09:45:20;3.70;99.90
19665;DHT22;9980;51.020;7.772;2024-01-27T09:47:49;3.80;99.90
19665;DHT22;9980;51.020;7.772;2024-01-27T09:50:18;3.90;99.90
19665;DHT22;9980;51.020;7.772;2024-01-27T09:52:46;4.00;99.90
19665;DHT22;9980;51.020;7.772;2024-01-27T09:55:13;4.10;99.90
19665;DHT22;9980;51.020;7.772;2024-01-27T09:57:40;4.20;99.90
19665;DHT22;9980;51.020;7.772;2024-01-27T10:00:10;4.20;99.90
19665;DHT22;9980;51.020;7.772;2024-01-27T10:02:41;4.40;99.90
19665;DHT22;9980;51.020;7.772;2024-01-27T10:05:09;4.40;99.90
19665;DHT22;9980;51.020;7.772;2024-01-27T10:07:37;4.50;99.90
19665;DHT22;9980;51.020;7.772;2024-01-27T10:10:05;4.70;99.90
19665;DHT22;9980;51.020;7.772;2024-01-27T10:12:37;4.80;99.90
19665;DHT22;9980;51.020;7.772;2024-01-27T10:15:21;4.90;99.90
19665;DHT22;9980;51.020;7.772;2024-01-27T10:17:49;5.00;99.90
19665;DHT22;9980;51.020;7.772;2024-01-27T10:20:17;5.10;99.90
19665;DHT22;9980;51.020;7.772;2024-01-27T10:22:46;5.20;99.90
19665;DHT22;9980;51.020;7.772;2024-01-27T10:25:13;5.30;99.90
19665;DHT22;9980;51.020;7.772;2024-01-27T10:27:40;5.40;99.90
19665;DHT22;9980;51.020;7.772;2024-01-27T10:30:16;5.50;99.90
19665;DHT22;9980;51.020;7.772;2024-01-27T10:32:54;5.60;99.90
19665;DHT22;9980;51.020;7.772;2024-01-27T10:35:24;5.70;99.90
19665;DHT22;9980;51.020;7.772;2024-01-27T10:37:54;5.80;99.90
19665;DHT22;9980;51.020;7.772;2024-01-27T10:40:25;5.90;99.90
19665;DHT22;9980;51.020;7.772;2024-01-27T10:43:08;6.10;99.90
19665;DHT22;9980;51.020;7.772;2024-01-27T10:45:37;6.20;99.90
19665;DHT22;9980;51.020;7.772;2024-01-27T10:48:09;6.20;99.90
19665;DHT22;9980;51.020;7.772;2024-01-27T10:50:41;6.40;99.90
19665;DHT22;9980;51.020;7.772;2024-01-27T10:53:24;6.50;99.90
19665;DHT22;9980;51.020;7.772;2024-01-27T10:55:54;6.60;99.90
19665;DHT22;9980;51.020;7.772;2024-01-27T10:58:24;6.70;99.90
19665;DHT22;9980;51.020;7.772;2024-01-27T11:00:53;6.80;99.90
19665;DHT22;9980;51.020;7.772;2024-01-27T11:03:21;6.90;99.90
19665;DHT22;9980;51.020;7.772;2024-01-27T11:05:50;7.00;99.90
19665;DHT22;9980;51.020;7.772;2024-01-27T11:08:19;7.10;99.90
19665;DHT22;9980;51.020;7.772;2024-01-27T11:10:48;7.20;99.90
19665;DHT22;9980;51.020;7.772;2024-01-27T11:13:16;7.30;99.90
19665;DHT22;9980;51.020;7.772;2024-01-27T11:16:03;7.40;99.90
19665;DHT22;9980;51.020;7.772;2024-01-27T11:18:31;7.50;99.90
19665;DHT22;9980;51.020;7.772;2024-01-27T11:20:58;7.60;99.90
19665;DHT22;9980;51.020;7.772;2024-01-27T11:23:33;7.60;99.90
19665;DHT22;9980;51.020;7.772;2024-01-27T11:26:05;7.70;99.90
19665;DHT22;9980;51.020;7.772;2024-01-27T11:28:33;7.70;99.90
19665;DHT22;9980;51.020;7.772;2024-01-27T11:31:07;7.80;99.90
19665;DHT22;9980;51.020;7.772;2024-01-27T11:33:42;7.90;99.90
19665;DHT22;9980;51.020;7.772;2024-01-27T11:36:24;7.90;99.90
19665;DHT22;9980;51.020;7.772;2024-01-27T11:38:52;8.00;99.90
19665;DHT22;9980;51.020;7.772;2024-01-27T11:41:27;8.10;99.90
19665;DHT22;9980;51.020;7.772;2024-01-27T11:43:56;8.20;99.90
19665;DHT22;9980;51.020;7.772;2024-01-27T11:46:25;8.20;99.90
19665;DHT22;9980;51.020;7.772;2024-01-27T11:48:52;8.30;99.90
19665;DHT22;9980;51.020;7.772;2024-01-27T11:51:20;8.40;99.90
19665;DHT22;9980;51.020;7.772;2024-01-27T11:53:46;8.40;99.90
19665;DHT22;9980;51.020;7.772;2024-01-27T11:56:14;8.50;99.90
19665;DHT22;9980;51.020;7.772;2024-01-27T11:58:48;8.60;99.90
19665;DHT22;9980;51.020;7.772;2024-01-27T12:01:16;8.60;99.90
19665;DHT22;9980;51.020;7.772;2024-01-27T12:03:43;8.70;99.90
19665;DHT22;9980;51.020;7.772;2024-01-27T12:06:12;8.70;99.90
19665;DHT22;9980;51.020;7.772;2024-01-27T12:08:42;8.80;99.90
19665;DHT22;9980;51.020;7.772;2024-01-27T12:11:16;8.80;99.90
19665;DHT22;9980;51.020;7.772;2024-01-27T12:13:50;8.80;99.90
19665;DHT22;9980;51.020;7.772;2024-01-27T12:16:18;8.90;99.90
19665;DHT22;9980;51.020;7.772;2024-01-27T12:18:45;8.90;99.90
19665;DHT22;9980;51.020;7.772;2024-01-27T12:21:13;9.00;99.90
19665;DHT22;9980;51.020;7.772;2024-01-27T12:24:14;9.00;99.90
19665;DHT22;9980;51.020;7.772;2024-01-27T12:26:47;9.10;99.90
19665;DHT22;9980;51.020;7.772;2024-01-27T12:29:14;9.10;99.90
19665;DHT22;9980;51.020;7.772;2024-01-27T12:31:41;9.20;99.90
19665;DHT22;9980;51.020;7.772;2024-01-27T12:34:08;9.20;99.90
19665;DHT22;9980;51.020;7.772;2024-01-27T12:36:40;9.30;99.90
19665;DHT22;9980;51.020;7.772;2024-01-27T12:39:09;9.30;99.90
19665;DHT22;9980;51.020;7.772;2024-01-27T12:41:36;9.40;99.90
19665;DHT22;9980;51.020;7.772;2024-01-27T12:44:04;9.40;99.90
19665;DHT22;9980;51.020;7.772;2024-01-27T12:46:32;9.40;99.90
19665;DHT22;9980;51.020;7.772;2024-01-27T12:48:59;9.50;99.90
19665;DHT22;9980;51.020;7.772;2024-01-27T12:51:26;9.50;99.90
19665;DHT22;9980;51.020;7.772;2024-01-27T12:53:53;9.60;99.90
19665;DHT22;9980;51.020;7.772;2024-01-27T12:56:20;9.60;99.90
19665;DHT22;9980;51.020;7.772;2024-01-27T12:58:47;9.60;99.90
19665;DHT22;9980;51.020;7.772;2024-01-27T13:01:15;9.60;99.90
19665;DHT22;9980;51.020;7.772;2024-01-27T13:03:42;9.70;99.90
19665;DHT22;9980;51.020;7.772;2024-01-27T13:06:12;9.70;99.90
19665;DHT22;9980;51.020;7.772;2024-01-27T13:08:40;9.70;99.90
19665;DHT22;9980;51.020;7.772;2024-01-27T13:11:08;9.70;99.90
19665;DHT22;9980;51.020;7.772;2024-01-27T13:13:36;9.80;99.90
19665;DHT22;9980;51.020;7.772;2024-01-27T13:16:03;9.80;99.90
19665;DHT22;9980;51.020;7.772;2024-01-27T13:18:30;9.80;99.90
19665;DHT22;9980;51.020;7.772;2024-01-27T13:20:57;9.80;99.90
19665;DHT22;9980;51.020;7.772;2024-01-27T13:23:24;9.80;99.90
19665;DHT22;9980;51.020;7.772;2024-01-27T13:25:52;9.80;99.90
19665;DHT22;9980;51.020;7.772;2024-01-27T13:28:38;9.80;99.90
19665;DHT22;9980;51.020;7.772;2024-01-27T13:31:06;9.80;99.90
19665;DHT22;9980;51.020;7.772;2024-01-27T13:33:33;9.90;99.90
19665;DHT22;9980;51.020;7.772;2024-01-27T13:36:02;9.90;99.90
19665;DHT22;9980;51.020;7.772;2024-01-27T13:38:29;9.90;99.90
19665;DHT22;9980;51.020;7.772;2024-01-27T13:40:56;9.90;99.90
19665;DHT22;9980;51.020;7.772;2024-01-27T13:43:23;9.90;99.90
19665;DHT22;9980;51.020;7.772;2024-01-27T13:45:50;9.90;99.90
19665;DHT22;9980;51.020;7.772;2024-01-27T13:48:18;9.90;99.90
19665;DHT22;9980;51.020;7.772;2024-01-27T13:50:45;9.90;99.90
19665;DHT22;9980;51.020;7.772;2024-01-27T13:53:12;9.90;99.90
19665;DHT22;9980;51.020;7.772;2024-01-27T13:55:39;9.90;99.90
19665;DHT22;9980;51.020;7.772;2024-01-27T13:58:07;9.90;99.90
19665;DHT22;9980;51.020;7.772;2024-01-27T14:00:34;9.90;99.90
19665;DHT22;9980;51.020;7.772;2024-01-27T14:03:02;9.90;99.90
19665;DHT22;9980;51.020;7.772;2024-01-27T14:05:29;9.90;99.90
19665;DHT22;9980;51.020;7.772;2024-01-27T14:07:56;9.90;99.90
19665;DHT22;9980;51.020;7.772;2024-01-27T14:10:23;9.80;99.90
19665;DHT22;9980;51.020;7.772;2024-01-27T14:12:51;9.80;99.90
19665;DHT22;9980;51.020;7.772;2024-01-27T14:15:18;9.80;99.90
19665;DHT22;9980;51.020;7.772;2024-01-27T14:17:47;9.80;99.90
19665;DHT22;9980;51.020;7.772;2024-01-27T14:20:15;9.80;99.90
19665;DHT22;9980;51.020;7.772;2024-01-27T14:22:42;9.80;99.90
19665;DHT22;9980;51.020;7.772;2024-01-27T14:25:10;9.80;99.90
19665;DHT22;9980;51.020;7.772;2024-01-27T14:27:37;9.70;99.90
19665;DHT22;9980;51.020;7.772;2024-01-27T14:30:04;9.70;99.90
19665;DHT22;9980;51.020;7.772;2024-01-27T14:32:32;9.70;99.90
19665;DHT22;9980;51.020;7.772;2024-01-27T14:34:59;9.70;99.90
19665;DHT22;9980;51.020;7.772;2024-01-27T14:37:26;9.60;99.90
19665;DHT22;9980;51.020;7.772;2024-01-27T14:39:53;9.60;99.90
19665;DHT22;9980;51.020;7.772;2024-01-27T14:42:20;9.50;99.90
19665;DHT22;9980;51.020;7.772;2024-01-27T14:44:47;9.50;99.90
19665;DHT22;9980;51.020;7.772;2024-01-27T14:47:16;9.40;99.90
19665;DHT22;9980;51.020;7.772;2024-01-27T14:49:43;9.40;99.90
19665;DHT22;9980;51.020;7.772;2024-01-27T14:52:12;9.30;99.90
19665;DHT22;9980;51.020;7.772;2024-01-27T14:54:39;9.30;99.90
19665;DHT22;9980;51.020;7.772;2024-01-27T14:57:07;9.20;99.90
19665;DHT22;9980;51.020;7.772;2024-01-27T14:59:38;9.10;99.90
19665;DHT22;9980;51.020;7.772;2024-01-27T15:02:06;9.00;99.90
19665;DHT22;9980;51.020;7.772;2024-01-27T15:04:34;9.00;99.90
19665;DHT22;9980;51.020;7.772;2024-01-27T15:07:01;8.90;99.90
19665;DHT22;9980;51.020;7.772;2024-01-27T15:09:28;8.80;99.90
19665;DHT22;9980;51.020;7.772;2024-01-27T15:11:55;8.70;99.90
19665;DHT22;9980;51.020;7.772;2024-01-27T15:14:22;8.60;99.90
19665;DHT22;9980;51.020;7.772;2024-01-27T15:16:49;8.60;99.90
19665;DHT22;9980;51.020;7.772;2024-01-27T15:19:16;8.50;99.90
19665;DHT22;9980;51.020;7.772;2024-01-27T15:21:43;8.40;99.90
19665;DHT22;9980;51.020;7.772;2024-01-27T15:24:10;8.30;99.90
19665;DHT22;9980;51.020;7.772;2024-01-27T15:26:37;8.30;99.90
19665;DHT22;9980;51.020;7.772;2024-01-27T15:29:04;8.20;99.90
19665;DHT22;9980;51.020;7.772;2024-01-27T15:31:31;8.10;99.90
19665;DHT22;9980;51.020;7.772;2024-01-27T15:33:58;8.10;99.90
19665;DHT22;9980;51.020;7.772;2024-01-27T15:36:25;8.00;99.90
19665;DHT22;9980;51.020;7.772;2024-01-27T15:38:52;7.90;99.90
19665;DHT22;9980;51.020;7.772;2024-01-27T15:41:19;7.80;99.90
19665;DHT22;9980;51.020;7.772;2024-01-27T15:43:46;7.80;99.90
19665;DHT22;9980;51.020;7.772;2024-01-27T15:46:16;7.70;99.90
19665;DHT22;9980;51.020;7.772;2024-01-27T15:48:43;7.70;99.90
19665;DHT22;9980;51.020;7.772;2024-01-27T15:51:10;7.60;99.90
19665;DHT22;9980;51.020;7.772;2024-01-27T15:53:37;7.50;99.90
19665;DHT22;9980;51.020;7.772;2024-01-27T15:56:04;7.40;99.90
19665;DHT22;9980;51.020;7.772;2024-01-27T15:58:31;7.40;99.90
19665;DHT22;9980;51.020;7.772;2024-01-27T16:00:58;7.30;99.90
19665;DHT22;9980;51.020;7.772;2024-01-27T16:03:25;7.20;99.90
19665;DHT22;9980;51.020;7.772;2024-01-27T16:05:53;7.20;99.90
19665;DHT22;9980;51.020;7.772;2024-01-27T16:08:19;7.10;99.90